SKPC

Details ICAO SKPC (PCR)
Name PUERTO CARRENO
Region Colombia
Timezone America/Bogota (UTC-5.0)
Plans Departing 6
Arriving 5
Stats Elevation 177 ft / 54 m (AMSL)
Location 6.184709° -67.493164°
Runways 1
Magnetic Variation 11.714° W
Sunrise 2017-12-11 10:31:41 UTC / 2017-12-11 05:31:41 Local
Sunset 2017-12-11 22:17:51 UTC / 2017-12-11 17:17:51 Local
Advertisement - Login to hide

Runways

ID Width Length Bearing (true) Bearing (mag) Surface Threshold Offset Overrun Length
07 69 ft / 21 m 5,907 ft / 1,800 m 60.20° 71.91° Asphalt 0 ft / 0 m 0 ft / 0 m
25 69 ft / 21 m 5,907 ft / 1,800 m 240.20° 251.91° Asphalt 0 ft / 0 m 0 ft / 0 m

Map

Weather


0- 5 10 15 20 25 30 35+ Temperature / ° C

Clouds and Precipitation
Forecast for 2017-12-12 06:00 UTC. Updated 3 minutes ago

Ground ~20,000 ft ~40,000 ft Winds

METAR

SKPC 120000Z 00000KT CAVOK 29/23 A2968

TAF

Not found

Frequencies

Tower 118.10 MHz TWR
Warning: Do not use this data for real-world aviation or navigation. No guarantee of current accuracy is given.